createdAt,value
2018-02-01T00:01:44.346Z,99364.19
2018-02-01T00:04:13.447Z,99366.28
2018-02-01T00:06:42.518Z,99369.19
2018-02-01T00:09:11.609Z,99378.05
2018-02-01T00:11:40.701Z,99371.75
2018-02-01T00:14:09.793Z,99369.66
2018-02-01T00:16:38.870Z,99370.08
2018-02-01T00:19:08.718Z,99377.00
2018-02-01T00:21:37.815Z,99375.09
2018-02-01T00:24:06.906Z,99375.52
2018-02-01T00:26:36.004Z,99370.38
2018-02-01T00:29:05.061Z,99382.40
2018-02-01T00:31:34.926Z,99387.29
2018-02-01T00:34:04.045Z,99379.12
2018-02-01T00:36:33.105Z,99370.20
2018-02-01T00:39:02.202Z,99373.55
2018-02-01T00:41:31.275Z,99375.36
2018-02-01T00:44:00.382Z,99381.77
2018-02-01T00:46:29.457Z,99391.08
2018-02-01T00:48:59.347Z,99390.33
2018-02-01T00:51:29.212Z,99388.00
2018-02-01T00:53:59.217Z,99395.22
2018-02-01T00:56:28.317Z,99392.17
2018-02-01T00:58:57.428Z,99390.08
2018-02-01T01:01:26.485Z,99395.63
2018-02-01T01:03:55.580Z,99387.05
2018-02-01T01:06:25.417Z,99397.66
2018-02-01T01:08:54.522Z,99398.77
2018-02-01T01:11:23.626Z,99394.89
2018-02-01T01:13:52.725Z,99398.44
2018-02-01T01:16:21.778Z,99395.34
2018-02-01T01:18:50.853Z,99396.05
2018-02-01T01:21:20.725Z,99393.73
2018-02-01T01:23:49.806Z,99393.39
2018-02-01T01:26:18.905Z,99397.30
2018-02-01T01:28:47.970Z,99393.03
2018-02-01T01:31:17.073Z,99399.73
2018-02-01T01:33:46.147Z,99393.14
2018-02-01T01:36:16.005Z,99401.84
2018-02-01T01:38:45.858Z,99402.00
2018-02-01T01:41:14.972Z,99398.99
2018-02-01T01:43:44.803Z,99401.97
2018-02-01T01:46:13.894Z,99397.71
2018-02-01T01:48:43.734Z,99399.96
2018-02-01T01:51:12.819Z,99394.50
2018-02-01T01:53:41.893Z,99394.74
2018-02-01T01:56:11.750Z,99392.69
2018-02-01T01:58:40.854Z,99379.34
2018-02-01T02:01:10.712Z,99382.17
2018-02-01T02:03:39.793Z,99371.13
2018-02-01T02:06:08.861Z,99360.91
2018-02-01T02:08:37.961Z,99373.78
2018-02-01T02:11:07.045Z,99370.17
2018-02-01T02:13:36.146Z,99371.60
2018-02-01T02:16:05.209Z,99374.46
2018-02-01T02:18:34.304Z,99374.79
2018-02-01T02:21:03.374Z,99372.89
2018-02-01T02:23:33.227Z,99367.79
2018-02-01T02:26:02.334Z,99362.88
2018-02-01T02:28:31.410Z,99354.55
2018-02-01T02:31:00.501Z,99344.98
2018-02-01T02:33:29.579Z,99344.12
2018-02-01T02:35:58.670Z,99345.55
2018-02-01T02:38:28.509Z,99350.14
2018-02-01T02:40:57.607Z,99341.02
2018-02-01T02:43:26.692Z,99342.98
2018-02-01T02:45:55.782Z,99339.38
2018-02-01T02:48:24.858Z,99337.17
2018-02-01T02:50:54.709Z,99337.23
2018-02-01T02:53:23.785Z,99338.78
2018-02-01T02:55:52.885Z,99345.34
2018-02-01T02:58:21.977Z,99338.75
2018-02-01T03:00:51.055Z,99325.94
2018-02-01T03:03:20.919Z,99334.88
2018-02-01T03:05:49.991Z,99329.56
2018-02-01T03:08:19.085Z,99330.55
2018-02-01T03:10:48.198Z,99337.79
2018-02-01T03:13:17.281Z,99344.02
2018-02-01T03:15:46.360Z,99346.88
2018-02-01T03:18:15.492Z,99336.33
2018-02-01T03:20:44.575Z,99339.70
2018-02-01T03:23:13.671Z,99342.68
2018-02-01T03:25:42.737Z,99342.91
2018-02-01T03:28:12.593Z,99340.12
2018-02-01T03:30:41.668Z,99342.72
2018-02-01T03:33:10.753Z,99343.54
2018-02-01T03:35:39.860Z,99345.98
2018-02-01T03:38:08.951Z,99343.30
2018-02-01T03:40:38.034Z,99347.92
2018-02-01T03:43:07.107Z,99340.59
2018-02-01T03:45:36.195Z,99334.69
2018-02-01T03:48:05.269Z,99336.89
2018-02-01T03:50:34.362Z,99335.91
2018-02-01T03:53:03.430Z,99333.83
2018-02-01T03:55:32.521Z,99338.65
2018-02-01T03:58:01.623Z,99339.55
2018-02-01T04:00:31.486Z,99334.39
2018-02-01T04:03:02.066Z,99337.25
2018-02-01T04:05:31.373Z,99345.83
2018-02-01T04:08:00.453Z,99338.27
2018-02-01T04:10:29.561Z,99335.45
2018-02-01T04:12:58.725Z,99340.41
2018-02-01T04:15:28.559Z,99332.36
2018-02-01T04:17:57.644Z,99334.45
2018-02-01T04:20:26.738Z,99317.98
2018-02-01T04:22:56.669Z,99319.38
2018-02-01T04:25:26.650Z,99310.59
2018-02-01T04:27:56.502Z,99310.41
2018-02-01T04:30:25.575Z,99312.61
2018-02-01T04:32:55.443Z,99319.84
2018-02-01T04:35:24.518Z,99321.58
2018-02-01T04:37:53.586Z,99318.96
2018-02-01T04:40:22.676Z,99329.98
2018-02-01T04:42:51.777Z,99332.38
2018-02-01T04:45:21.617Z,99324.27
2018-02-01T04:47:50.725Z,99321.67
2018-02-01T04:50:20.588Z,99339.86
2018-02-01T04:52:49.691Z,99336.19
2018-02-01T04:55:18.791Z,99341.85
2018-02-01T04:57:48.640Z,99353.66
2018-02-01T05:00:17.717Z,99353.42
2018-02-01T05:02:46.822Z,99354.52
2018-02-01T05:05:16.661Z,99355.12
2018-02-01T05:07:45.753Z,99364.23
2018-02-01T05:10:14.874Z,99352.65
2018-02-01T05:12:43.981Z,99351.93
2018-02-01T05:15:13.815Z,99346.74
2018-02-01T05:17:42.914Z,99348.20
2018-02-01T05:20:12.004Z,99339.67
2018-02-01T05:22:41.125Z,99340.89
2018-02-01T05:25:10.947Z,99341.67
2018-02-01T05:27:40.834Z,99338.63
2018-02-01T05:30:10.671Z,99338.45
2018-02-01T05:32:39.965Z,99339.53
2018-02-01T05:35:09.070Z,99339.64
2018-02-01T05:37:38.920Z,99336.78
2018-02-01T05:40:08.182Z,99332.31
2018-02-01T05:42:37.921Z,99334.38
2018-02-01T05:45:07.007Z,99334.94
2018-02-01T05:47:36.077Z,99332.16
2018-02-01T05:50:05.161Z,99332.76
2018-02-01T05:52:34.249Z,99332.49
2018-02-01T05:55:03.338Z,99329.00
2018-02-01T05:57:32.448Z,99332.13
2018-02-01T06:00:01.521Z,99339.28
2018-02-01T06:02:31.382Z,99335.86
2018-02-01T06:05:00.464Z,99343.21
2018-02-01T06:07:30.327Z,99349.38
2018-02-01T06:10:00.177Z,99348.05
2018-02-01T06:12:29.264Z,99348.45
2018-02-01T06:14:58.351Z,99352.13
2018-02-01T06:17:28.218Z,99349.45
2018-02-01T06:19:57.290Z,99350.09
2018-02-01T06:22:26.389Z,99351.77
2018-02-01T06:24:55.470Z,99349.40
2018-02-01T06:27:24.578Z,99353.64
2018-02-01T06:29:53.648Z,99353.30
2018-02-01T06:32:22.755Z,99360.87
2018-02-01T06:34:51.835Z,99363.09
2018-02-01T06:37:20.910Z,99362.84
2018-02-01T06:39:50.768Z,99356.14
2018-02-01T06:42:19.854Z,99357.59
2018-02-01T06:44:48.941Z,99359.15
2018-02-01T06:47:18.018Z,99357.81
2018-02-01T06:49:47.900Z,99360.20
2018-02-01T06:52:16.973Z,99369.11
2018-02-01T06:54:46.065Z,99371.78
2018-02-01T06:57:15.133Z,99369.50
2018-02-01T06:59:44.225Z,99366.59
2018-02-01T07:02:13.321Z,99366.59
2018-02-01T07:04:42.413Z,99379.80
2018-02-01T07:07:12.269Z,99373.44
2018-02-01T07:09:41.366Z,99359.00
2018-02-01T07:12:11.221Z,99368.53
2018-02-01T07:14:40.316Z,99368.81
2018-02-01T07:17:09.404Z,99372.59
2018-02-01T07:19:38.606Z,99364.62
2018-02-01T07:22:08.480Z,99362.64
2018-02-01T07:24:37.542Z,99379.55
2018-02-01T07:27:06.638Z,99372.27
2018-02-01T07:29:35.732Z,99368.48
2018-02-01T07:32:04.829Z,99384.33
2018-02-01T07:34:33.925Z,99383.72
2018-02-01T07:37:03.017Z,99393.73
2018-02-01T07:39:32.889Z,99398.48
2018-02-01T07:42:01.962Z,99412.29
2018-02-01T07:44:31.046Z,99405.67
2018-02-01T07:47:03.447Z,99405.80
2018-02-01T07:49:32.525Z,99422.97
2018-02-01T07:52:01.753Z,99422.38
2018-02-01T07:54:30.821Z,99419.55
2018-02-01T07:56:59.914Z,99417.66
2018-02-01T07:59:28.989Z,99434.45
2018-02-01T08:01:58.105Z,99424.03
2018-02-01T08:04:27.174Z,99432.06
2018-02-01T08:06:56.475Z,99437.30
2018-02-01T08:09:26.319Z,99437.55
2018-02-01T08:11:55.415Z,99440.61
2018-02-01T08:14:24.552Z,99447.05
2018-02-01T08:16:53.658Z,99444.16
2018-02-01T08:19:23.786Z,99457.20
2018-02-01T08:21:52.888Z,99454.53
2018-02-01T08:24:22.715Z,99452.59
2018-02-01T08:26:51.808Z,99451.26
2018-02-01T08:29:20.879Z,99460.69
2018-02-01T08:31:50.749Z,99459.84
2018-02-01T08:34:19.833Z,99464.14
2018-02-01T08:36:48.924Z,99486.66
2018-02-01T08:39:18.018Z,99479.09
2018-02-01T08:41:47.104Z,99472.17
2018-02-01T08:44:16.193Z,99472.44
2018-02-01T08:46:45.363Z,99474.57
2018-02-01T08:49:15.206Z,99479.41
2018-02-01T08:51:44.344Z,99477.75
2018-02-01T08:54:13.416Z,99477.70
2018-02-01T08:56:42.486Z,99483.73
2018-02-01T08:59:11.598Z,99490.40
2018-02-01T09:01:40.670Z,99485.75
2018-02-01T09:04:10.518Z,99488.75
2018-02-01T09:06:39.619Z,99492.89
2018-02-01T09:09:08.698Z,99493.38
2018-02-01T09:11:37.804Z,99494.77
2018-02-01T09:14:06.957Z,99494.81
2018-02-01T09:16:36.823Z,99505.91
2018-02-01T09:19:05.893Z,99500.73
2018-02-01T09:21:34.995Z,99502.45
2018-02-01T09:24:04.110Z,99503.14
2018-02-01T09:26:33.210Z,99506.02
2018-02-01T09:29:02.285Z,99514.43
2018-02-01T09:31:31.368Z,99510.44
2018-02-01T09:34:00.465Z,99513.26
2018-02-01T09:36:30.310Z,99514.37
2018-02-01T09:38:59.391Z,99506.58
2018-02-01T09:41:28.481Z,99509.41
2018-02-01T09:43:58.327Z,99500.47
2018-02-01T09:46:27.427Z,99506.06
2018-02-01T09:48:56.520Z,99512.78
2018-02-01T09:51:26.513Z,99502.77
2018-02-01T09:53:55.689Z,99514.91
2018-02-01T09:56:24.759Z,99515.77
2018-02-01T09:58:54.621Z,99526.36
2018-02-01T10:01:23.732Z,99526.80
2018-02-01T10:03:52.829Z,99526.52
2018-02-01T10:06:21.944Z,99520.87
2018-02-01T10:08:51.017Z,99524.95
2018-02-01T10:11:20.119Z,99516.84
2018-02-01T10:13:50.015Z,99527.50
2018-02-01T10:16:19.103Z,99517.09
2018-02-01T10:18:48.199Z,99517.09
2018-02-01T10:21:17.498Z,99511.77
2018-02-01T10:23:46.573Z,99518.59
2018-02-01T10:26:15.675Z,99517.59
2018-02-01T10:28:44.778Z,99516.89
2018-02-01T10:31:13.854Z,99513.48
2018-02-01T10:33:42.950Z,99510.16
2018-02-01T10:36:12.030Z,99514.48
2018-02-01T10:38:41.900Z,99513.18
2018-02-01T10:41:11.748Z,99501.84
2018-02-01T10:43:41.614Z,99505.23
2018-02-01T10:46:10.693Z,99501.73
2018-02-01T10:48:39.805Z,99493.62
2018-02-01T10:51:08.915Z,99490.61
2018-02-01T10:53:38.021Z,99482.15
2018-02-01T10:56:07.930Z,99472.78
2018-02-01T10:58:36.998Z,99476.30
2018-02-01T11:01:06.097Z,99469.13
2018-02-01T11:03:35.182Z,99474.42
2018-02-01T11:06:04.279Z,99463.77
2018-02-01T11:08:33.350Z,99460.25
2018-02-01T11:11:02.455Z,99462.06
2018-02-01T11:13:32.301Z,99449.20
2018-02-01T11:16:01.388Z,99452.68
2018-02-01T11:18:30.478Z,99451.13
2018-02-01T11:20:59.567Z,99449.17
2018-02-01T11:23:28.638Z,99450.56
2018-02-01T11:25:58.493Z,99449.96
2018-02-01T11:28:27.585Z,99452.31
2018-02-01T11:30:57.486Z,99460.03
2018-02-01T11:33:27.361Z,99468.13
2018-02-01T11:35:56.463Z,99467.89
2018-02-01T11:38:26.316Z,99475.86
2018-02-01T11:40:55.431Z,99476.84
2018-02-01T11:43:24.491Z,99484.05
2018-02-01T11:45:53.608Z,99487.42
2018-02-01T11:48:23.443Z,99483.22
2018-02-01T11:50:52.568Z,99483.25
2018-02-01T11:53:21.673Z,99475.80
2018-02-01T11:55:50.770Z,99465.33
2018-02-01T11:58:20.631Z,99468.44
2018-02-01T12:00:49.761Z,99464.11
2018-02-01T12:03:19.341Z,99455.73
2018-02-01T12:05:48.436Z,99449.64
2018-02-01T12:08:17.534Z,99453.16
2018-02-01T12:10:46.619Z,99457.31
2018-02-01T12:13:16.490Z,99461.11
2018-02-01T12:15:46.333Z,99460.36
2018-02-01T12:18:15.416Z,99450.84
2018-02-01T12:20:44.521Z,99452.66
2018-02-01T12:23:13.610Z,99442.78
2018-02-01T12:25:58.205Z,99447.66
2018-02-01T12:28:27.295Z,99456.37
2018-02-01T12:30:56.378Z,99438.59
2018-02-01T12:33:25.482Z,99438.28
2018-02-01T12:35:54.696Z,99441.92
2018-02-01T12:38:23.787Z,99445.59
2018-02-01T12:40:52.886Z,99444.91
2018-02-01T12:43:21.978Z,99442.91
2018-02-01T12:45:51.073Z,99450.73
2018-02-01T12:48:20.960Z,99442.58
2018-02-01T12:50:51.725Z,99450.34
2018-02-01T12:53:20.826Z,99451.80
2018-02-01T12:55:50.590Z,99442.44
2018-02-01T12:58:20.460Z,99443.66
2018-02-01T13:00:49.559Z,99438.87
2018-02-01T13:03:18.667Z,99431.36
2018-02-01T13:05:47.749Z,99432.88
2018-02-01T13:08:16.864Z,99433.39
2018-02-01T13:10:45.948Z,99427.52
2018-02-01T13:13:16.526Z,99431.88
2018-02-01T13:15:45.641Z,99434.92
2018-02-01T13:18:14.743Z,99436.33
2018-02-01T13:20:43.838Z,99434.92
2018-02-01T13:23:12.943Z,99436.38
2018-02-01T13:25:50.529Z,99439.58
2018-02-01T13:28:39.994Z,99430.48
2018-02-01T13:34:39.986Z,99418.66
2018-02-01T13:40:33.617Z,99419.08
2018-02-01T13:49:51.394Z,99412.66
2018-02-01T13:52:20.472Z,99411.25
2018-02-01T13:54:50.346Z,99413.66
2018-02-01T13:57:22.281Z,99419.48
2018-02-01T13:59:55.357Z,99418.53
2018-02-01T14:02:24.498Z,99408.50
2018-02-01T14:04:53.590Z,99415.19
2018-02-01T14:07:22.687Z,99415.06
2018-02-01T14:09:51.801Z,99415.56
2018-02-01T14:12:21.672Z,99414.27
2018-02-01T14:14:50.767Z,99407.83
2018-02-01T14:17:20.631Z,99423.41
2018-02-01T14:19:50.497Z,99423.88
2018-02-01T14:22:19.608Z,99423.91
2018-02-01T14:24:48.680Z,99430.03
2018-02-01T14:27:17.794Z,99439.57
2018-02-01T14:29:46.881Z,99453.47
2018-02-01T14:32:15.982Z,99478.56
2018-02-01T14:34:45.059Z,99500.32
2018-02-01T14:37:14.161Z,99503.55
2018-02-01T14:39:43.250Z,99508.43
2018-02-01T14:42:12.325Z,99508.99
2018-02-01T14:44:41.415Z,99503.73
2018-02-01T14:47:11.336Z,99497.20
2018-02-01T14:49:40.440Z,99493.64
2018-02-01T14:52:09.543Z,99493.55
2018-02-01T14:54:38.945Z,99484.28
2018-02-01T14:57:08.044Z,99478.77
2018-02-01T14:59:37.572Z,99472.86
2018-02-01T15:02:06.666Z,99457.41
2018-02-01T15:04:35.782Z,99453.52
2018-02-01T15:07:04.879Z,99443.63
2018-02-01T15:09:33.980Z,99446.64
2018-02-01T15:12:03.074Z,99445.23
2018-02-01T15:14:32.179Z,99446.30
2018-02-01T15:17:01.268Z,99439.81
2018-02-01T15:19:30.399Z,99441.62
2018-02-01T15:22:00.275Z,99432.72
2018-02-01T15:24:29.353Z,99435.53
2018-02-01T15:26:58.459Z,99436.55
2018-02-01T15:29:28.157Z,99438.55
2018-02-01T15:31:57.263Z,99444.77
2018-02-01T15:34:27.128Z,99442.30
2018-02-01T15:36:56.986Z,99440.42
2018-02-01T15:39:26.073Z,99436.28
2018-02-01T15:41:55.189Z,99442.04
2018-02-01T15:44:25.785Z,99437.30
2018-02-01T15:46:54.885Z,99432.77
2018-02-01T15:49:23.956Z,99432.96
2018-02-01T15:51:53.062Z,99433.25
2018-02-01T15:54:22.158Z,99427.58
2018-02-01T15:56:51.256Z,99428.20
2018-02-01T15:59:20.337Z,99420.84
2018-02-01T16:01:49.458Z,99429.30
2018-02-01T16:04:18.528Z,99429.83
2018-02-01T16:06:47.626Z,99428.22
2018-02-01T16:09:16.775Z,99434.52
2018-02-01T16:11:45.868Z,99439.79
2018-02-01T16:14:15.001Z,99435.88
2018-02-01T16:16:45.783Z,99431.56
2018-02-01T16:19:14.889Z,99430.08
2018-02-01T16:21:43.980Z,99431.40
2018-02-01T16:24:13.089Z,99429.62
2018-02-01T16:26:42.195Z,99428.92
2018-02-01T16:29:11.302Z,99426.61
2018-02-01T16:31:41.161Z,99433.39
2018-02-01T16:34:10.292Z,99436.80
2018-02-01T16:36:39.393Z,99433.51
2018-02-01T16:39:08.482Z,99436.93
2018-02-01T16:41:37.597Z,99439.02
2018-02-01T16:44:06.701Z,99434.46
2018-02-01T16:46:36.606Z,99434.41
2018-02-01T16:49:05.720Z,99440.45
2018-02-01T16:51:35.595Z,99440.12
2018-02-01T16:54:04.682Z,99444.45
2018-02-01T16:56:33.824Z,99445.34
2018-02-01T16:59:03.699Z,99443.45
2018-02-01T17:01:32.844Z,99453.28
2018-02-01T17:04:01.886Z,99453.80
2018-02-01T17:06:31.014Z,99458.97
2018-02-01T17:09:01.545Z,99459.63
2018-02-01T17:11:30.654Z,99459.59
2018-02-01T17:14:00.535Z,99455.61
2018-02-01T17:16:29.628Z,99465.68
2018-02-01T17:18:58.747Z,99472.05
2018-02-01T17:21:28.622Z,99475.46
2018-02-01T17:23:57.725Z,99480.42
2018-02-01T17:26:26.851Z,99481.61
2018-02-01T17:28:55.969Z,99488.00
2018-02-01T17:31:25.817Z,99488.16
2018-02-01T17:33:54.949Z,99487.56
2018-02-01T17:36:24.053Z,99493.86
2018-02-01T17:38:53.166Z,99493.86
2018-02-01T17:41:23.037Z,99483.22
2018-02-01T17:43:52.162Z,99481.45
2018-02-01T17:46:22.641Z,99476.70
2018-02-01T17:48:51.771Z,99483.16
2018-02-01T17:51:20.863Z,99479.74
2018-02-01T17:53:49.972Z,99481.88
2018-02-01T17:56:19.085Z,99487.00
2018-02-01T17:58:48.984Z,99491.67
2018-02-01T18:01:18.103Z,99489.17
2018-02-01T18:03:47.971Z,99490.14
2018-02-01T18:06:17.047Z,99482.93
2018-02-01T18:08:46.147Z,99486.56
2018-02-01T18:11:15.255Z,99495.23
2018-02-01T18:13:45.264Z,99501.95
2018-02-01T18:16:15.220Z,99505.09
2018-02-01T18:18:48.192Z,99506.98
2018-02-01T18:21:17.292Z,99502.40
2018-02-01T18:23:47.178Z,99498.30
2018-02-01T18:26:20.628Z,99506.59
2018-02-01T18:28:55.803Z,99503.67
2018-02-01T18:31:24.885Z,99519.45
2018-02-01T18:33:54.001Z,99527.02
2018-02-01T18:36:23.167Z,99538.31
2018-02-01T18:38:53.026Z,99539.17
2018-02-01T18:41:22.103Z,99538.59
2018-02-01T18:43:51.213Z,99540.82
2018-02-01T18:46:21.078Z,99528.77
2018-02-01T18:48:51.113Z,99530.05
2018-02-01T18:51:22.520Z,99531.69
2018-02-01T18:53:53.042Z,99530.52
2018-02-01T18:56:22.171Z,99527.75
2018-02-01T18:58:52.021Z,99534.85
2018-02-01T19:01:21.908Z,99537.80
2018-02-01T19:03:52.047Z,99544.15
2018-02-01T19:06:21.841Z,99540.96
2018-02-01T19:08:51.528Z,99539.36
2018-02-01T19:11:20.651Z,99547.97
2018-02-01T19:13:51.152Z,99541.45
2018-02-01T19:16:20.244Z,99542.80
2018-02-01T19:21:39.331Z,99555.99
2018-02-01T19:24:09.269Z,99559.94
2018-02-01T19:26:38.662Z,99560.27
2018-02-01T19:29:08.555Z,99562.23
2018-02-01T19:31:37.671Z,99559.56
2018-02-01T19:34:07.554Z,99561.27
2018-02-01T19:36:36.674Z,99566.72
2018-02-01T19:39:07.944Z,99573.11
2018-02-01T19:41:37.131Z,99579.03
2018-02-01T19:44:07.833Z,99578.80
2018-02-01T19:46:36.954Z,99577.70
2018-02-01T19:49:08.402Z,99585.53
2018-02-01T19:51:37.512Z,99580.94
2018-02-01T19:54:07.386Z,99594.17
2018-02-01T19:56:36.501Z,99601.00
2018-02-01T19:59:05.623Z,99600.38
2018-02-01T20:01:35.471Z,99601.74
2018-02-01T20:04:04.606Z,99602.94
2018-02-01T20:06:33.694Z,99605.49
2018-02-01T20:09:02.827Z,99607.82
2018-02-01T20:11:31.921Z,99603.86
2018-02-01T20:14:01.824Z,99599.91
2018-02-01T20:16:31.692Z,99599.34
2018-02-01T20:19:00.819Z,99605.89
2018-02-01T20:21:29.937Z,99609.41
2018-02-01T20:23:59.810Z,99607.54
2018-02-01T20:26:28.960Z,99599.42
2018-02-01T20:28:58.081Z,99600.28
2018-02-01T20:31:27.184Z,99600.80
2018-02-01T20:33:57.174Z,99610.59
2018-02-01T20:36:27.071Z,99605.97
2018-02-01T20:38:56.942Z,99598.48
2018-02-01T20:41:26.049Z,99603.44
2018-02-01T20:43:55.217Z,99616.28
2018-02-01T20:46:24.318Z,99620.22
2018-02-01T20:48:53.456Z,99626.67
2018-02-01T20:51:23.328Z,99627.42
2018-02-01T20:53:53.207Z,99628.16
2018-02-01T20:56:23.112Z,99633.31
2018-02-01T20:58:52.982Z,99633.48
2018-02-01T21:01:22.082Z,99634.31
2018-02-01T21:03:51.150Z,99639.33
2018-02-01T21:06:21.022Z,99646.38
2018-02-01T21:08:51.856Z,99643.05
2018-02-01T21:11:20.902Z,99642.50
2018-02-01T21:13:50.008Z,99654.62
2018-02-01T21:16:19.110Z,99651.95
2018-02-01T21:18:48.205Z,99653.89
2018-02-01T21:21:17.328Z,99656.45
2018-02-01T21:23:46.394Z,99659.63
2018-02-01T21:26:15.522Z,99656.30
2018-02-01T21:28:45.375Z,99664.03
2018-02-01T21:31:14.499Z,99664.33
2018-02-01T21:33:43.581Z,99662.44
2018-02-01T21:36:12.688Z,99668.67
2018-02-01T21:38:41.812Z,99670.17
2018-02-01T21:41:11.700Z,99668.89
2018-02-01T21:43:40.835Z,99675.73
2018-02-01T21:46:10.691Z,99679.75
2018-02-01T21:48:39.820Z,99680.53
2018-02-01T21:51:08.943Z,99691.14
2018-02-01T21:53:38.816Z,99686.17
2018-02-01T21:56:07.891Z,99686.47
2018-02-01T21:58:37.835Z,99681.95
2018-02-01T22:01:06.910Z,99689.32
2018-02-01T22:03:36.002Z,99689.73
2018-02-01T22:06:05.182Z,99691.66
2018-02-01T22:08:34.579Z,99693.20
2018-02-01T22:11:03.719Z,99690.77
2018-02-01T22:13:32.818Z,99684.44
2018-02-01T22:16:01.909Z,99690.84
2018-02-01T22:18:31.019Z,99688.16
2018-02-01T22:21:00.108Z,99693.20
2018-02-01T22:23:29.213Z,99702.56
2018-02-01T22:25:58.322Z,99698.53
2018-02-01T22:28:28.172Z,99705.06
2018-02-01T22:30:57.276Z,99710.84
2018-02-01T22:33:26.872Z,99706.38
2018-02-01T22:35:55.984Z,99707.95
2018-02-01T22:38:25.077Z,99719.59
2018-02-01T22:40:54.181Z,99718.66
2018-02-01T22:43:23.250Z,99715.34
2018-02-01T22:45:52.362Z,99713.50
2018-02-01T22:48:21.472Z,99720.66
2018-02-01T22:50:51.359Z,99719.37
2018-02-01T22:53:20.418Z,99719.64
2018-02-01T22:55:50.292Z,99718.05
2018-02-01T22:58:19.383Z,99715.07
2018-02-01T23:00:48.529Z,99712.59
2018-02-01T23:03:17.597Z,99710.23
2018-02-01T23:05:46.682Z,99704.90
2018-02-01T23:08:15.773Z,99702.61
2018-02-01T23:10:44.882Z,99705.34
2018-02-01T23:13:13.977Z,99704.09
2018-02-01T23:15:43.061Z,99705.45
2018-02-01T23:18:12.152Z,99706.91
2018-02-01T23:20:41.241Z,99706.57
2018-02-01T23:23:10.326Z,99705.92
2018-02-01T23:25:39.411Z,99702.56
2018-02-01T23:28:09.349Z,99702.31
2018-02-01T23:30:38.476Z,99710.66
2018-02-01T23:33:07.593Z,99706.41
2018-02-01T23:35:36.661Z,99703.29
2018-02-01T23:38:05.767Z,99701.96
2018-02-01T23:40:34.866Z,99700.83
2018-02-01T23:43:04.710Z,99700.03
2018-02-01T23:45:33.794Z,99701.88
2018-02-01T23:48:03.673Z,99699.88
2018-02-01T23:50:32.775Z,99702.96
2018-02-01T23:53:01.870Z,99698.66
2018-02-01T23:55:30.947Z,99701.39
2018-02-01T23:58:00.126Z,99694.11
